Main page
METAR-TAF:

METAR-TAF

Airports :

Bob Sikes Airport

Crestview, Florida, United States

latitude: 30-46-20N, longitude: 086-31-12W, elevation: 213 ft

Current weather observation

The report was made 47 minutes ago, at 12:53 UTC
Wind 6 mph from the Southwest
Temperature 75°F
Humidity 94%
Pressure 30.02 in. Hg
Visibility: 10 miles
Clear sky
light rain

METAR: KCEW 281253Z AUTO 23005KT 10SM -RA CLR 24/23 A3002 RMK AO2 SLP162 P0000 T02440233

Time: 08:40 (13:40 UTC)


TAF: missing

Weather observations and forecasts of more than 4000 airports (METAR and TAF reports).

The available stations are represented by yellow and red dots on the map.

Hover mouse over dot to see the name of the station.

Then click to see weather observations and forecasts.

To change the map : click on the green buttons with a black cross to zoom in, on the green button with a dash to zoom out, or on the green arrows for adjacent maps.


METAR-TAF: